sensor_id;sensor_type;location;lat;lon;timestamp;pressure;altitude;pressure_sealevel;temperature;humidity
74346;BME280;62776;50.518;6.732;2024-03-02T00:02:15;95040.66;;;7.26;100.00
74346;BME280;62776;50.518;6.732;2024-03-02T00:05:04;95042.38;;;7.25;100.00
74346;BME280;62776;50.518;6.732;2024-03-02T00:07:56;95033.81;;;7.23;100.00
74346;BME280;62776;50.518;6.732;2024-03-02T00:10:42;95036.28;;;7.29;100.00
74346;BME280;62776;50.518;6.732;2024-03-02T00:13:30;95038.06;;;7.27;100.00
74346;BME280;62776;50.518;6.732;2024-03-02T00:16:18;95038.81;;;7.32;100.00
74346;BME280;62776;50.518;6.732;2024-03-02T00:19:05;95038.81;;;7.32;100.00
74346;BME280;62776;50.518;6.732;2024-03-02T00:21:54;95039.56;;;7.37;100.00
74346;BME280;62776;50.518;6.732;2024-03-02T00:24:41;95041.28;;;7.37;100.00
74346;BME280;62776;50.518;6.732;2024-03-02T00:27:27;95043.06;;;7.35;100.00
74346;BME280;62776;50.518;6.732;2024-03-02T00:33:43;95041.34;;;7.34;100.00
74346;BME280;62776;50.518;6.732;2024-03-02T00:36:30;95046.50;;;7.34;100.00
74346;BME280;62776;50.518;6.732;2024-03-02T00:39:16;95037.09;;;7.31;100.00
74346;BME280;62776;50.518;6.732;2024-03-02T00:42:03;95036.28;;;7.29;100.00
74346;BME280;62776;50.518;6.732;2024-03-02T00:44:50;95039.63;;;7.34;100.00
74346;BME280;62776;50.518;6.732;2024-03-02T00:47:40;95038.81;;;7.32;100.00
74346;BME280;62776;50.518;6.732;2024-03-02T00:50:26;95037.84;;;7.36;100.00
74346;BME280;62776;50.518;6.732;2024-03-02T00:53:13;95042.13;;;7.37;100.00
74346;BME280;62776;50.518;6.732;2024-03-02T00:56:00;95043.84;;;7.38;100.00
74346;BME280;62776;50.518;6.732;2024-03-02T00:58:47;95042.00;;;7.43;100.00
74346;BME280;62776;50.518;6.732;2024-03-02T01:01:33;95042.00;;;7.43;100.00
74346;BME280;62776;50.518;6.732;2024-03-02T01:04:19;95034.25;;;7.43;100.00
74346;BME280;62776;50.518;6.732;2024-03-02T01:07:06;95033.44;;;7.41;100.00
74346;BME280;62776;50.518;6.732;2024-03-02T01:09:53;95040.28;;;7.42;100.00
74346;BME280;62776;50.518;6.732;2024-03-02T01:12:39;95036.84;;;7.43;100.00
74346;BME280;62776;50.518;6.732;2024-03-02T01:15:27;95045.47;;;7.42;100.00
74346;BME280;62776;50.518;6.732;2024-03-02T01:18:13;95029.78;;;7.50;100.00
74346;BME280;62776;50.518;6.732;2024-03-02T01:20:59;95030.59;;;7.52;100.00
74346;BME280;62776;50.518;6.732;2024-03-02T01:23:46;95037.44;;;7.54;100.00
74346;BME280;62776;50.518;6.732;2024-03-02T01:26:33;95039.09;;;7.57;100.00
74346;BME280;62776;50.518;6.732;2024-03-02T01:29:19;95036.47;;;7.58;100.00
74346;BME280;62776;50.518;6.732;2024-03-02T01:32:06;95029.53;;;7.60;100.00
74346;BME280;62776;50.518;6.732;2024-03-02T01:34:52;95037.25;;;7.62;100.00
74346;BME280;62776;50.518;6.732;2024-03-02T01:37:40;95029.47;;;7.63;100.00
74346;BME280;62776;50.518;6.732;2024-03-02T01:40:27;95032.88;;;7.65;100.00
74346;BME280;62776;50.518;6.732;2024-03-02T01:43:15;95028.50;;;7.67;100.00
74346;BME280;62776;50.518;6.732;2024-03-02T01:46:01;95025.03;;;7.68;100.00
74346;BME280;62776;50.518;6.732;2024-03-02T01:48:48;95029.31;;;7.69;100.00
74346;BME280;62776;50.518;6.732;2024-03-02T01:51:36;95028.44;;;7.70;100.00
74346;BME280;62776;50.518;6.732;2024-03-02T01:54:22;95020.59;;;7.73;100.00
74346;BME280;62776;50.518;6.732;2024-03-02T01:57:09;95024.84;;;7.76;100.00
74346;BME280;62776;50.518;6.732;2024-03-02T01:59:55;95024.97;;;7.71;100.00
74346;BME280;62776;50.518;6.732;2024-03-02T02:02:44;95020.56;;;7.75;100.00
74346;BME280;62776;50.518;6.732;2024-03-02T02:05:28;95012.72;;;7.78;100.00
74346;BME280;62776;50.518;6.732;2024-03-02T02:08:17;95024.72;;;7.81;100.00
74346;BME280;62776;50.518;6.732;2024-03-02T02:11:03;95015.22;;;7.83;100.00
74346;BME280;62776;50.518;6.732;2024-03-02T02:13:50;95018.56;;;7.86;100.00
74346;BME280;62776;50.518;6.732;2024-03-02T02:16:36;95022.00;;;7.87;100.00
74346;BME280;62776;50.518;6.732;2024-03-02T02:19:22;95020.28;;;7.86;100.00
74346;BME280;62776;50.518;6.732;2024-03-02T02:22:09;95019.28;;;7.91;100.00
74346;BME280;62776;50.518;6.732;2024-03-02T02:24:56;95006.47;;;7.88;100.00
74346;BME280;62776;50.518;6.732;2024-03-02T02:27:43;95014.25;;;7.87;100.00
74346;BME280;62776;50.518;6.732;2024-03-02T02:30:31;95008.13;;;7.89;100.00
74346;BME280;62776;50.518;6.732;2024-03-02T02:33:17;95014.97;;;7.92;100.00
74346;BME280;62776;50.518;6.732;2024-03-02T02:36:06;95013.31;;;7.89;100.00
74346;BME280;62776;50.518;6.732;2024-03-02T02:38:55;95019.34;;;7.90;100.00
74346;BME280;62776;50.518;6.732;2024-03-02T02:41:41;95015.84;;;7.92;100.00
74346;BME280;62776;50.518;6.732;2024-03-02T02:44:27;95014.97;;;7.92;100.00
74346;BME280;62776;50.518;6.732;2024-03-02T02:47:17;95015.91;;;7.89;100.00
74346;BME280;62776;50.518;6.732;2024-03-02T02:50:03;95015.03;;;7.89;100.00
74346;BME280;62776;50.518;6.732;2024-03-02T02:52:50;95013.38;;;7.88;100.00
74346;BME280;62776;50.518;6.732;2024-03-02T02:55:36;95002.16;;;7.87;100.00
74346;BME280;62776;50.518;6.732;2024-03-02T02:58:26;95012.50;;;7.87;100.00
74346;BME280;62776;50.518;6.732;2024-03-02T03:01:12;95005.56;;;7.89;100.00
74346;BME280;62776;50.518;6.732;2024-03-02T03:03:59;95003.88;;;7.88;100.00
74346;BME280;62776;50.518;6.732;2024-03-02T03:06:45;95019.50;;;7.84;100.00
74346;BME280;62776;50.518;6.732;2024-03-02T03:09:37;95009.22;;;7.81;100.00
74346;BME280;62776;50.518;6.732;2024-03-02T03:12:23;95004.94;;;7.80;100.00
74346;BME280;62776;50.518;6.732;2024-03-02T03:15:09;95022.22;;;7.78;100.00
74346;BME280;62776;50.518;6.732;2024-03-02T03:17:56;95022.22;;;7.78;100.00
74346;BME280;62776;50.518;6.732;2024-03-02T03:20:43;95022.22;;;7.78;100.00
74346;BME280;62776;50.518;6.732;2024-03-02T03:23:29;95019.81;;;7.70;100.00
74346;BME280;62776;50.518;6.732;2024-03-02T03:26:16;95026.78;;;7.68;100.00
74346;BME280;62776;50.518;6.732;2024-03-02T03:29:02;95021.63;;;7.66;100.00
74346;BME280;62776;50.518;6.732;2024-03-02T03:31:48;95018.22;;;7.64;100.00
74346;BME280;62776;50.518;6.732;2024-03-02T03:34:36;95021.75;;;7.62;100.00
74346;BME280;62776;50.518;6.732;2024-03-02T03:37:22;95014.09;;;7.57;100.00
74346;BME280;62776;50.518;6.732;2024-03-02T03:40:11;95017.56;;;7.56;100.00
74346;BME280;62776;50.518;6.732;2024-03-02T03:42:57;95024.44;;;7.57;100.00
74346;BME280;62776;50.518;6.732;2024-03-02T03:45:44;95018.50;;;7.54;100.00
74346;BME280;62776;50.518;6.732;2024-03-02T03:48:30;95024.59;;;7.50;100.00
74346;BME280;62776;50.518;6.732;2024-03-02T03:51:19;95022.94;;;7.47;100.00
74346;BME280;62776;50.518;6.732;2024-03-02T03:54:11;95031.66;;;7.43;100.00
74346;BME280;62776;50.518;6.732;2024-03-02T03:56:57;95024.72;;;7.45;100.00
74346;BME280;62776;50.518;6.732;2024-03-02T03:59:44;95031.66;;;7.43;100.00
74346;BME280;62776;50.518;6.732;2024-03-02T04:02:30;95038.59;;;7.41;100.00
74346;BME280;62776;50.518;6.732;2024-03-02T04:05:16;95039.47;;;7.40;100.00
74346;BME280;62776;50.518;6.732;2024-03-02T04:08:03;95041.34;;;7.34;100.00
74346;BME280;62776;50.518;6.732;2024-03-02T04:10:52;95040.59;;;7.30;100.00
74346;BME280;62776;50.518;6.732;2024-03-02T04:13:39;95037.16;;;7.28;100.00
74346;BME280;62776;50.518;6.732;2024-03-02T04:16:25;95039.91;;;7.22;100.00
74346;BME280;62776;50.518;6.732;2024-03-02T04:19:12;95035.66;;;7.18;100.00
74346;BME280;62776;50.518;6.732;2024-03-02T04:22:04;95038.31;;;7.17;100.00
74346;BME280;62776;50.518;6.732;2024-03-02T04:24:51;95042.63;;;7.14;100.00
74346;BME280;62776;50.518;6.732;2024-03-02T04:27:40;95045.38;;;7.08;100.00
74346;BME280;62776;50.518;6.732;2024-03-02T04:30:27;95049.66;;;7.08;100.00
74346;BME280;62776;50.518;6.732;2024-03-02T04:33:19;95047.16;;;7.03;100.00
74346;BME280;62776;50.518;6.732;2024-03-02T04:36:07;95053.25;;;7.01;100.00
74346;BME280;62776;50.518;6.732;2024-03-02T04:38:55;95056.72;;;7.00;100.00
74346;BME280;62776;50.518;6.732;2024-03-02T04:41:41;95064.59;;;6.94;100.00
74346;BME280;62776;50.518;6.732;2024-03-02T04:44:27;95063.78;;;6.92;100.00
74346;BME280;62776;50.518;6.732;2024-03-02T04:47:16;95062.25;;;6.82;100.00
74346;BME280;62776;50.518;6.732;2024-03-02T04:50:02;95065.78;;;6.78;100.00
74346;BME280;62776;50.518;6.732;2024-03-02T04:52:49;95069.28;;;6.74;100.00
74346;BME280;62776;50.518;6.732;2024-03-02T04:55:35;95082.34;;;6.66;100.00
74346;BME280;62776;50.518;6.732;2024-03-02T04:58:41;95072.19;;;6.59;100.00
74346;BME280;62776;50.518;6.732;2024-03-02T05:01:29;95070.59;;;6.51;100.00
74346;BME280;62776;50.518;6.732;2024-03-02T05:04:20;95070.63;;;6.48;100.00
74346;BME280;62776;50.518;6.732;2024-03-02T05:07:07;95078.38;;;6.48;100.00
74346;BME280;62776;50.518;6.732;2024-03-02T05:09:53;95070.63;;;6.50;100.00
74346;BME280;62776;50.518;6.732;2024-03-02T05:12:40;95075.75;;;6.51;100.00
74346;BME280;62776;50.518;6.732;2024-03-02T05:15:32;95072.38;;;6.48;100.00
74346;BME280;62776;50.518;6.732;2024-03-02T05:18:18;95069.81;;;6.48;100.00
74346;BME280;62776;50.518;6.732;2024-03-02T05:21:09;95075.03;;;6.43;100.00
74346;BME280;62776;50.518;6.732;2024-03-02T05:23:57;95069.88;;;6.45;100.00
74346;BME280;62776;50.518;6.732;2024-03-02T05:26:43;95075.03;;;6.43;100.00
74346;BME280;62776;50.518;6.732;2024-03-02T05:29:30;95078.53;;;6.41;100.00
74346;BME280;62776;50.518;6.732;2024-03-02T05:32:16;95087.13;;;6.41;100.00
74346;BME280;62776;50.518;6.732;2024-03-02T05:35:02;95082.88;;;6.37;100.00
74346;BME280;62776;50.518;6.732;2024-03-02T05:37:49;95086.22;;;6.44;100.00
74346;BME280;62776;50.518;6.732;2024-03-02T05:40:35;95083.69;;;6.42;100.00
74346;BME280;62776;50.518;6.732;2024-03-02T05:43:22;95082.81;;;6.40;100.00
74346;BME280;62776;50.518;6.732;2024-03-02T05:46:09;95080.25;;;6.40;100.00
74346;BME280;62776;50.518;6.732;2024-03-02T05:48:58;95079.47;;;6.37;100.00
74346;BME280;62776;50.518;6.732;2024-03-02T05:51:47;95076.91;;;6.35;100.00
74346;BME280;62776;50.518;6.732;2024-03-02T05:54:34;95078.69;;;6.32;100.00
74346;BME280;62776;50.518;6.732;2024-03-02T05:57:30;95084.06;;;6.18;100.00
74346;BME280;62776;50.518;6.732;2024-03-02T06:00:42;95083.22;;;6.19;100.00
74346;BME280;62776;50.518;6.732;2024-03-02T06:03:30;95075.47;;;6.19;100.00
74346;BME280;62776;50.518;6.732;2024-03-02T06:06:17;95084.16;;;6.15;100.00
74346;BME280;62776;50.518;6.732;2024-03-02T06:09:04;95083.31;;;6.15;100.00
74346;BME280;62776;50.518;6.732;2024-03-02T06:11:56;95079.06;;;6.11;100.00
74346;BME280;62776;50.518;6.732;2024-03-02T06:14:43;95078.19;;;6.10;100.00
74346;BME280;62776;50.518;6.732;2024-03-02T06:17:30;95082.50;;;6.11;100.00
74346;BME280;62776;50.518;6.732;2024-03-02T06:20:16;95072.22;;;6.10;100.00
74346;BME280;62776;50.518;6.732;2024-03-02T06:23:03;95093.72;;;6.07;100.00
74346;BME280;62776;50.518;6.732;2024-03-02T06:25:49;95092.09;;;6.03;100.00
74346;BME280;62776;50.518;6.732;2024-03-02T06:28:36;95097.28;;;6.00;100.00
74346;BME280;62776;50.518;6.732;2024-03-02T06:31:23;95105.06;;;5.97;100.00
74346;BME280;62776;50.518;6.732;2024-03-02T06:34:09;95105.94;;;5.96;100.00
74346;BME280;62776;50.518;6.732;2024-03-02T06:36:55;95098.16;;;5.99;100.00
74346;BME280;62776;50.518;6.732;2024-03-02T06:39:44;95104.16;;;6.00;100.00
74346;BME280;62776;50.518;6.732;2024-03-02T06:42:31;95102.50;;;5.97;100.00
74346;BME280;62776;50.518;6.732;2024-03-02T06:45:19;95105.97;;;5.94;100.00
74346;BME280;62776;50.518;6.732;2024-03-02T06:48:06;95111.16;;;5.93;100.00
74346;BME280;62776;50.518;6.732;2024-03-02T06:50:52;95117.16;;;5.95;100.00
74346;BME280;62776;50.518;6.732;2024-03-02T06:53:38;95112.91;;;5.91;100.00
74346;BME280;62776;50.518;6.732;2024-03-02T06:56:24;95112.84;;;5.94;100.00
74346;BME280;62776;50.518;6.732;2024-03-02T06:59:10;95110.22;;;5.97;100.00
74346;BME280;62776;50.518;6.732;2024-03-02T07:01:57;95109.31;;;6.01;100.00
74346;BME280;62776;50.518;6.732;2024-03-02T07:04:43;95111.91;;;6.00;100.00
74346;BME280;62776;50.518;6.732;2024-03-02T07:07:31;95106.75;;;6.01;100.00
74346;BME280;62776;50.518;6.732;2024-03-02T07:10:18;95104.97;;;6.03;100.00
74346;BME280;62776;50.518;6.732;2024-03-02T07:13:05;95114.34;;;6.07;100.00
74346;BME280;62776;50.518;6.732;2024-03-02T07:15:51;95123.81;;;6.10;100.00
74346;BME280;62776;50.518;6.732;2024-03-02T07:19:01;95122.03;;;6.10;100.00
74346;BME280;62776;50.518;6.732;2024-03-02T07:21:48;95122.00;;;6.13;100.00
74346;BME280;62776;50.518;6.732;2024-03-02T07:24:42;95121.13;;;6.14;100.00
74346;BME280;62776;50.518;6.732;2024-03-02T07:27:30;95133.91;;;6.23;100.00
74346;BME280;62776;50.518;6.732;2024-03-02T07:30:18;95140.78;;;6.21;100.00
74346;BME280;62776;50.518;6.732;2024-03-02T07:33:04;95141.72;;;6.17;100.00
74346;BME280;62776;50.518;6.732;2024-03-02T07:35:54;95135.66;;;6.18;100.00
74346;BME280;62776;50.518;6.732;2024-03-02T07:38:40;95133.16;;;6.15;100.00
74346;BME280;62776;50.518;6.732;2024-03-02T07:41:27;95136.59;;;6.14;100.00
74346;BME280;62776;50.518;6.732;2024-03-02T07:44:13;95128.06;;;6.12;100.00
74346;BME280;62776;50.518;6.732;2024-03-02T07:47:02;95131.41;;;6.17;100.00
74346;BME280;62776;50.518;6.732;2024-03-02T07:49:51;95136.47;;;6.23;100.00
74346;BME280;62776;50.518;6.732;2024-03-02T07:52:38;95135.56;;;6.24;100.00
74346;BME280;62776;50.518;6.732;2024-03-02T07:55:28;95144.97;;;6.28;100.00
74346;BME280;62776;50.518;6.732;2024-03-02T07:58:15;95156.03;;;6.36;100.00
74346;BME280;62776;50.518;6.732;2024-03-02T08:01:07;95167.06;;;6.43;100.00
74346;BME280;62776;50.518;6.732;2024-03-02T08:03:53;95163.63;;;6.44;100.00
74346;BME280;62776;50.518;6.732;2024-03-02T08:06:41;95164.34;;;6.53;100.00
74346;BME280;62776;50.518;6.732;2024-03-02T08:09:27;95167.56;;;6.66;100.00
74346;BME280;62776;50.518;6.732;2024-03-02T08:12:14;95176.91;;;6.72;100.00
74346;BME280;62776;50.518;6.732;2024-03-02T08:15:00;95172.63;;;6.72;100.00
74346;BME280;62776;50.518;6.732;2024-03-02T08:17:47;95169.13;;;6.75;100.00
74346;BME280;62776;50.518;6.732;2024-03-02T08:20:35;95167.25;;;6.81;100.00
74346;BME280;62776;50.518;6.732;2024-03-02T08:23:21;95174.91;;;6.89;100.00
74346;BME280;62776;50.518;6.732;2024-03-02T08:26:08;95169.59;;;6.96;100.00
74346;BME280;62776;50.518;6.732;2024-03-02T08:28:55;95175.41;;;7.06;100.00
74346;BME280;62776;50.518;6.732;2024-03-02T08:31:42;95170.03;;;7.18;100.00
74346;BME280;62776;50.518;6.732;2024-03-02T08:34:28;95161.19;;;7.28;100.00
74346;BME280;62776;50.518;6.732;2024-03-02T08:37:14;95154.22;;;7.33;100.00
74346;BME280;62776;50.518;6.732;2024-03-02T08:40:00;95146.38;;;7.36;100.00
74346;BME280;62776;50.518;6.732;2024-03-02T08:42:47;95155.84;;;7.37;100.00
74346;BME280;62776;50.518;6.732;2024-03-02T08:45:34;95143.00;;;7.34;100.00
74346;BME280;62776;50.518;6.732;2024-03-02T08:48:28;95140.41;;;7.34;100.00
74346;BME280;62776;50.518;6.732;2024-03-02T08:51:14;95147.69;;;7.57;100.00
74346;BME280;62776;50.518;6.732;2024-03-02T08:54:01;95143.88;;;7.75;100.00
74346;BME280;62776;50.518;6.732;2024-03-02T08:56:50;95147.94;;;7.85;100.00
74346;BME280;62776;50.518;6.732;2024-03-02T08:59:36;95146.28;;;7.82;100.00
74346;BME280;62776;50.518;6.732;2024-03-02T09:02:23;95142.66;;;7.89;100.00
74346;BME280;62776;50.518;6.732;2024-03-02T09:05:12;95140.72;;;7.97;100.00
74346;BME280;62776;50.518;6.732;2024-03-02T09:07:59;95155.00;;;8.13;100.00
74346;BME280;62776;50.518;6.732;2024-03-02T09:10:45;95161.41;;;8.36;100.00
74346;BME280;62776;50.518;6.732;2024-03-02T09:13:32;95148.22;;;8.46;100.00
74346;BME280;62776;50.518;6.732;2024-03-02T09:16:19;95156.41;;;8.63;100.00
74346;BME280;62776;50.518;6.732;2024-03-02T09:19:06;95157.91;;;8.73;100.00
74346;BME280;62776;50.518;6.732;2024-03-02T09:21:53;95163.47;;;8.92;100.00
74346;BME280;62776;50.518;6.732;2024-03-02T09:24:41;95165.75;;;9.03;100.00
74346;BME280;62776;50.518;6.732;2024-03-02T09:27:27;95159.78;;;9.01;100.00
74346;BME280;62776;50.518;6.732;2024-03-02T09:30:15;95157.06;;;9.05;100.00
74346;BME280;62776;50.518;6.732;2024-03-02T09:33:03;95157.63;;;9.15;100.00
74346;BME280;62776;50.518;6.732;2024-03-02T09:35:50;95155.81;;;9.18;100.00
74346;BME280;62776;50.518;6.732;2024-03-02T09:38:36;95161.81;;;9.20;100.00
74346;BME280;62776;50.518;6.732;2024-03-02T09:41:22;95163.50;;;9.23;100.00
74346;BME280;62776;50.518;6.732;2024-03-02T09:44:10;95155.59;;;9.26;100.00
74346;BME280;62776;50.518;6.732;2024-03-02T09:46:56;95156.38;;;9.29;100.00
74346;BME280;62776;50.518;6.732;2024-03-02T09:49:42;95160.63;;;9.32;100.00
74346;BME280;62776;50.518;6.732;2024-03-02T09:52:31;95157.91;;;9.36;100.00
74346;BME280;62776;50.518;6.732;2024-03-02T09:55:19;95148.34;;;9.38;100.00
74346;BME280;62776;50.518;6.732;2024-03-02T09:58:06;95147.91;;;9.54;100.00
74346;BME280;62776;50.518;6.732;2024-03-02T10:00:54;95148.41;;;9.66;100.00
74346;BME280;62776;50.518;6.732;2024-03-02T10:03:40;95143.78;;;9.76;100.00
74346;BME280;62776;50.518;6.732;2024-03-02T10:06:29;95148.03;;;9.78;100.00
74346;BME280;62776;50.518;6.732;2024-03-02T10:09:27;95144.91;;;9.67;100.00
74346;BME280;62776;50.518;6.732;2024-03-02T10:12:18;95142.94;;;9.75;100.00
74346;BME280;62776;50.518;6.732;2024-03-02T10:15:05;95148.88;;;9.79;100.00
74346;BME280;62776;50.518;6.732;2024-03-02T10:17:51;95136.63;;;9.84;100.00
74346;BME280;62776;50.518;6.732;2024-03-02T10:20:38;95133.06;;;9.88;100.00
74346;BME280;62776;50.518;6.732;2024-03-02T10:23:25;95133.69;;;9.94;100.00
74346;BME280;62776;50.518;6.732;2024-03-02T10:26:18;95132.97;;;9.91;100.00
74346;BME280;62776;50.518;6.732;2024-03-02T10:29:08;95141.38;;;9.97;100.00
74346;BME280;62776;50.518;6.732;2024-03-02T10:31:56;95138.69;;;10.00;100.00
74346;BME280;62776;50.518;6.732;2024-03-02T10:34:46;95126.41;;;10.07;100.00
74346;BME280;62776;50.518;6.732;2024-03-02T10:37:33;95130.44;;;10.17;100.00
74346;BME280;62776;50.518;6.732;2024-03-02T10:40:23;95137.44;;;10.14;100.00
74346;BME280;62776;50.518;6.732;2024-03-02T10:43:10;95132.22;;;10.15;100.00
74346;BME280;62776;50.518;6.732;2024-03-02T10:45:58;95135.59;;;10.19;100.00
74346;BME280;62776;50.518;6.732;2024-03-02T10:48:46;95131.59;;;10.35;100.00
74346;BME280;62776;50.518;6.732;2024-03-02T10:51:36;95129.50;;;10.46;100.00
74346;BME280;62776;50.518;6.732;2024-03-02T10:54:23;95123.63;;;10.41;100.00
74346;BME280;62776;50.518;6.732;2024-03-02T10:57:14;95128.91;;;10.38;100.00
74346;BME280;62776;50.518;6.732;2024-03-02T11:00:04;95120.19;;;10.39;100.00
74346;BME280;62776;50.518;6.732;2024-03-02T11:02:56;95121.13;;;10.38;100.00
74346;BME280;62776;50.518;6.732;2024-03-02T11:05:47;95116.19;;;10.55;100.00
74346;BME280;62776;50.518;6.732;2024-03-02T11:08:34;95110.09;;;10.82;100.00
74346;BME280;62776;50.518;6.732;2024-03-02T11:11:32;95111.41;;;10.94;100.00
74346;BME280;62776;50.518;6.732;2024-03-02T11:14:24;95116.09;;;11.07;100.00
74346;BME280;62776;50.518;6.732;2024-03-02T11:17:16;95117.59;;;11.14;100.00
74346;BME280;62776;50.518;6.732;2024-03-02T11:20:04;95127.56;;;11.26;100.00
74346;BME280;62776;50.518;6.732;2024-03-02T11:22:51;95121.25;;;11.34;100.00
74346;BME280;62776;50.518;6.732;2024-03-02T11:25:37;95135.59;;;11.20;100.00
74346;BME280;62776;50.518;6.732;2024-03-02T11:28:35;95124.94;;;11.03;100.00
74346;BME280;62776;50.518;6.732;2024-03-02T11:31:22;95126.41;;;11.10;100.00
74346;BME280;62776;50.518;6.732;2024-03-02T11:34:35;95119.38;;;11.12;100.00
74346;BME280;62776;50.518;6.732;2024-03-02T11:37:25;95119.59;;;11.31;100.00
74346;BME280;62776;50.518;6.732;2024-03-02T11:40:13;95107.88;;;11.43;100.00
74346;BME280;62776;50.518;6.732;2024-03-02T11:43:02;95100.78;;;11.48;100.00
74346;BME280;62776;50.518;6.732;2024-03-02T11:45:57;95100.19;;;11.63;100.00
74346;BME280;62776;50.518;6.732;2024-03-02T11:48:48;95099.28;;;11.87;100.00
74346;BME280;62776;50.518;6.732;2024-03-02T11:51:34;95084.75;;;12.03;100.00
74346;BME280;62776;50.518;6.732;2024-03-02T11:54:21;95079.00;;;12.17;100.00
74346;BME280;62776;50.518;6.732;2024-03-02T11:57:07;95083.84;;;12.26;100.00
74346;BME280;62776;50.518;6.732;2024-03-02T11:59:54;95061.25;;;12.26;100.00
74346;BME280;62776;50.518;6.732;2024-03-02T12:02:42;95064.28;;;12.37;100.00
74346;BME280;62776;50.518;6.732;2024-03-02T12:05:31;95066.97;;;12.36;100.00
74346;BME280;62776;50.518;6.732;2024-03-02T12:08:21;95053.97;;;12.34;100.00
74346;BME280;62776;50.518;6.732;2024-03-02T12:11:07;95058.94;;;12.40;100.00
74346;BME280;62776;50.518;6.732;2024-03-02T12:13:55;95052.75;;;12.43;100.00
74346;BME280;62776;50.518;6.732;2024-03-02T12:16:45;95050.19;;;12.41;100.00
74346;BME280;62776;50.518;6.732;2024-03-02T12:19:33;95064.72;;;12.47;100.00
74346;BME280;62776;50.518;6.732;2024-03-02T12:22:19;95056.25;;;12.42;100.00
74346;BME280;62776;50.518;6.732;2024-03-02T12:25:08;95062.53;;;12.38;100.00
74346;BME280;62776;50.518;6.732;2024-03-02T12:27:55;95063.44;;;12.37;100.00
74346;BME280;62776;50.518;6.732;2024-03-02T12:30:42;95068.75;;;12.34;100.00
74346;BME280;62776;50.518;6.732;2024-03-02T12:33:29;95056.91;;;12.27;100.00
74346;BME280;62776;50.518;6.732;2024-03-02T12:36:16;95060.78;;;12.38;100.00
74346;BME280;62776;50.518;6.732;2024-03-02T12:39:08;95055.56;;;12.38;100.00
74346;BME280;62776;50.518;6.732;2024-03-02T12:41:55;95057.16;;;11.99;100.00
74346;BME280;62776;50.518;6.732;2024-03-02T12:44:41;95054.88;;;12.13;100.00
74346;BME280;62776;50.518;6.732;2024-03-02T12:47:27;95061.25;;;12.26;100.00
74346;BME280;62776;50.518;6.732;2024-03-02T12:50:13;95057.38;;;12.36;100.00
74346;BME280;62776;50.518;6.732;2024-03-02T12:52:59;95059.84;;;12.39;100.00
74346;BME280;62776;50.518;6.732;2024-03-02T12:55:46;95051.91;;;12.42;100.00
74346;BME280;62776;50.518;6.732;2024-03-02T12:58:39;95052.56;;;12.48;100.00
74346;BME280;62776;50.518;6.732;2024-03-02T13:01:27;95039.22;;;12.55;100.00
74346;BME280;62776;50.518;6.732;2024-03-02T13:04:13;95043.25;;;12.62;100.00
74346;BME280;62776;50.518;6.732;2024-03-02T13:07:00;95037.00;;;12.66;100.00
74346;BME280;62776;50.518;6.732;2024-03-02T13:09:49;95030.03;;;12.67;100.00
74346;BME280;62776;50.518;6.732;2024-03-02T13:12:38;95014.25;;;12.70;100.00
74346;BME280;62776;50.518;6.732;2024-03-02T13:15:27;95015.84;;;12.74;100.00
74346;BME280;62776;50.518;6.732;2024-03-02T13:18:13;95028.13;;;12.70;100.00
74346;BME280;62776;50.518;6.732;2024-03-02T13:20:59;95008.47;;;12.63;100.00
74346;BME280;62776;50.518;6.732;2024-03-02T13:23:46;95010.47;;;12.77;100.00
74346;BME280;62776;50.518;6.732;2024-03-02T13:26:34;95010.78;;;12.89;100.00
74346;BME280;62776;50.518;6.732;2024-03-02T13:29:21;95012.66;;;12.86;100.00
74346;BME280;62776;50.518;6.732;2024-03-02T13:32:08;95011.00;;;12.85;100.00
74346;BME280;62776;50.518;6.732;2024-03-02T13:34:55;95010.88;;;12.88;100.00
74346;BME280;62776;50.518;6.732;2024-03-02T13:37:41;95007.31;;;12.89;100.00
74346;BME280;62776;50.518;6.732;2024-03-02T13:40:27;94996.75;;;12.92;100.00
74346;BME280;62776;50.518;6.732;2024-03-02T13:43:15;94999.25;;;12.95;100.00
74346;BME280;62776;50.518;6.732;2024-03-02T13:46:04;94995.13;;;12.89;100.00
74346;BME280;62776;50.518;6.732;2024-03-02T13:48:50;95006.63;;;12.85;100.00
74346;BME280;62776;50.518;6.732;2024-03-02T13:51:40;94998.34;;;12.76;100.00
74346;BME280;62776;50.518;6.732;2024-03-02T13:54:27;94997.88;;;12.66;100.00
74346;BME280;62776;50.518;6.732;2024-03-02T13:57:13;95000.56;;;12.65;100.00
74346;BME280;62776;50.518;6.732;2024-03-02T14:00:00;95000.06;;;12.57;100.00
74346;BME280;62776;50.518;6.732;2024-03-02T14:02:49;94993.34;;;12.51;100.00
74346;BME280;62776;50.518;6.732;2024-03-02T14:05:36;94996.03;;;12.50;100.00
74346;BME280;62776;50.518;6.732;2024-03-02T14:08:24;94994.78;;;12.38;100.00
74346;BME280;62776;50.518;6.732;2024-03-02T14:11:11;94981.03;;;12.34;100.00
74346;BME280;62776;50.518;6.732;2024-03-02T14:14:01;94982.66;;;12.37;100.00
74346;BME280;62776;50.518;6.732;2024-03-02T14:16:51;94974.50;;;12.44;100.00
74346;BME280;62776;50.518;6.732;2024-03-02T14:19:38;94979.22;;;12.57;100.00
74346;BME280;62776;50.518;6.732;2024-03-02T14:22:24;94982.00;;;12.72;100.00
74346;BME280;62776;50.518;6.732;2024-03-02T14:25:10;94974.88;;;12.76;100.00
74346;BME280;62776;50.518;6.732;2024-03-02T14:27:57;94963.94;;;12.88;100.00
74346;BME280;62776;50.518;6.732;2024-03-02T14:30:43;94966.97;;;12.97;100.00
74346;BME280;62776;50.518;6.732;2024-03-02T14:33:36;94961.53;;;13.02;100.00
74346;BME280;62776;50.518;6.732;2024-03-02T14:36:22;94964.84;;;13.06;100.00
74346;BME280;62776;50.518;6.732;2024-03-02T14:39:11;94955.16;;;13.09;100.00
74346;BME280;62776;50.518;6.732;2024-03-02T14:41:57;94960.16;;;13.14;100.00
74346;BME280;62776;50.518;6.732;2024-03-02T14:44:44;94958.88;;;13.03;100.00
74346;BME280;62776;50.518;6.732;2024-03-02T14:47:32;94960.47;;;13.06;100.00
74346;BME280;62776;50.518;6.732;2024-03-02T14:50:20;94952.69;;;12.86;100.00